CZMT

Details ICAO CZMT (ZMT)
Name MASSET
Region Canada
Timezone America/Vancouver (UTC-8.0)
Plans Departing 4
Arriving 8
Stats Elevation 25 ft / 8 m (AMSL)
Location 54.024807° -132.117645°
Runways 1
Magnetic Variation 18.184° E
Sunrise 2017-12-14 17:02:15 UTC / 2017-12-14 09:02:15 Local
Sunset 2017-12-15 00:27:12 UTC / 2017-12-14 16:27:12 Local
Advertisement - Login to hide

Runways

ID Width Length Bearing (true) Bearing (mag) Surface Threshold Offset Overrun Length
13 98 ft / 30 m 5,017 ft / 1,529 m 144.74° 126.56° Asphalt 0 ft / 0 m 0 ft / 0 m
31 98 ft / 30 m 5,017 ft / 1,529 m 324.75° 306.57° Asphalt 0 ft / 0 m 0 ft / 0 m

Map

Weather


0- 5 10 15 20 25 30 35+ Temperature / ° C

Clouds and Precipitation
Forecast for 2017-12-15 06:00 UTC. Updated an hour ago

Ground ~20,000 ft ~40,000 ft Winds

METAR

Not found

TAF

TAF CZMT 141838Z 1419/1502 19005KT P6SM SCT020 BKN080 TEMPO 1419/1502 6SM -SHRA BKN020 BECMG 1419/1421 25006KT RMK NXT FCST WILL BE ISSUED AT 151615Z

Frequencies

Unicom 122.70 MHz CTAF/UNICOM
Warning: Do not use this data for real-world aviation or navigation. No guarantee of current accuracy is given.